sensor_id;sensor_type;location;lat;lon;timestamp;pressure;altitude;pressure_sealevel;temperature;humidity
33404;BME280;19751;40.274;18.268;2023-12-07T00:01:16;100893.47;;;10.90;100.00
33404;BME280;19751;40.274;18.268;2023-12-07T00:03:41;100885.38;;;10.90;100.00
33404;BME280;19751;40.274;18.268;2023-12-07T00:06:07;100889.38;;;10.94;100.00
33404;BME280;19751;40.274;18.268;2023-12-07T00:08:32;100893.47;;;11.05;100.00
33404;BME280;19751;40.274;18.268;2023-12-07T00:10:58;100886.09;;;11.14;100.00
33404;BME280;19751;40.274;18.268;2023-12-07T00:13:23;100881.25;;;11.24;100.00
33404;BME280;19751;40.274;18.268;2023-12-07T00:15:49;100882.13;;;11.31;100.00
33404;BME280;19751;40.274;18.268;2023-12-07T00:18:14;100888.44;;;11.38;100.00
33404;BME280;19751;40.274;18.268;2023-12-07T00:20:40;100884.25;;;11.36;100.00
33404;BME280;19751;40.274;18.268;2023-12-07T00:23:05;100884.06;;;11.16;100.00
33404;BME280;19751;40.274;18.268;2023-12-07T00:25:31;100889.66;;;11.00;100.00
33404;BME280;19751;40.274;18.268;2023-12-07T00:27:56;100892.84;;;10.88;100.00
33404;BME280;19751;40.274;18.268;2023-12-07T00:30:22;100892.94;;;10.80;100.00
33404;BME280;19751;40.274;18.268;2023-12-07T00:32:48;100893.13;;;10.79;100.00
33404;BME280;19751;40.274;18.268;2023-12-07T00:35:14;100893.75;;;10.81;100.00
33404;BME280;19751;40.274;18.268;2023-12-07T00:37:41;100888.66;;;10.86;100.00
33404;BME280;19751;40.274;18.268;2023-12-07T00:40:07;100884.66;;;10.97;100.00
33404;BME280;19751;40.274;18.268;2023-12-07T00:42:36;100876.09;;;11.08;100.00
33404;BME280;19751;40.274;18.268;2023-12-07T00:45:02;100877.44;;;11.18;100.00
33404;BME280;19751;40.274;18.268;2023-12-07T00:47:27;100879.19;;;11.26;100.00
33404;BME280;19751;40.274;18.268;2023-12-07T00:49:53;100881.75;;;11.34;100.00
33404;BME280;19751;40.274;18.268;2023-12-07T00:52:18;100885.13;;;11.36;100.00
33404;BME280;19751;40.274;18.268;2023-12-07T00:54:44;100880.16;;;11.40;100.00
33404;BME280;19751;40.274;18.268;2023-12-07T00:57:09;100867.13;;;11.43;100.00
33404;BME280;19751;40.274;18.268;2023-12-07T00:59:35;100859.69;;;11.45;100.00
33404;BME280;19751;40.274;18.268;2023-12-07T01:02:06;100864.50;;;11.50;100.00
33404;BME280;19751;40.274;18.268;2023-12-07T01:04:32;100855.38;;;11.51;100.00
33404;BME280;19751;40.274;18.268;2023-12-07T01:06:58;100852.47;;;11.53;100.00
33404;BME280;19751;40.274;18.268;2023-12-07T01:09:24;100846.06;;;11.54;100.00
33404;BME280;19751;40.274;18.268;2023-12-07T01:11:49;100837.16;;;11.53;100.00
33404;BME280;19751;40.274;18.268;2023-12-07T01:14:15;100841.50;;;11.54;100.00
33404;BME280;19751;40.274;18.268;2023-12-07T01:16:42;100848.56;;;11.55;100.00
33404;BME280;19751;40.274;18.268;2023-12-07T01:19:08;100852.94;;;11.56;100.00
33404;BME280;19751;40.274;18.268;2023-12-07T01:21:33;100858.44;;;11.48;100.00
33404;BME280;19751;40.274;18.268;2023-12-07T01:23:59;100873.41;;;11.29;100.00
33404;BME280;19751;40.274;18.268;2023-12-07T01:26:25;100873.38;;;11.08;100.00
33404;BME280;19751;40.274;18.268;2023-12-07T01:28:50;100867.34;;;11.06;100.00
33404;BME280;19751;40.274;18.268;2023-12-07T01:31:16;100869.28;;;11.12;100.00
33404;BME280;19751;40.274;18.268;2023-12-07T01:33:45;100872.50;;;11.22;100.00
33404;BME280;19751;40.274;18.268;2023-12-07T01:36:11;100863.00;;;11.26;100.00
33404;BME280;19751;40.274;18.268;2023-12-07T01:38:37;100864.94;;;11.32;100.00
33404;BME280;19751;40.274;18.268;2023-12-07T01:41:02;100868.47;;;11.33;100.00
33404;BME280;19751;40.274;18.268;2023-12-07T01:43:28;100864.56;;;11.35;100.00
33404;BME280;19751;40.274;18.268;2023-12-07T01:45:56;100865.13;;;11.31;100.00
33404;BME280;19751;40.274;18.268;2023-12-07T01:48:23;100862.19;;;11.26;100.00
33404;BME280;19751;40.274;18.268;2023-12-07T01:50:49;100860.97;;;11.28;100.00
33404;BME280;19751;40.274;18.268;2023-12-07T01:53:16;100861.84;;;11.35;100.00
33404;BME280;19751;40.274;18.268;2023-12-07T01:55:42;100852.34;;;11.39;100.00
33404;BME280;19751;40.274;18.268;2023-12-07T01:58:07;100856.75;;;11.40;100.00
33404;BME280;19751;40.274;18.268;2023-12-07T02:00:34;100859.69;;;11.45;100.00
33404;BME280;19751;40.274;18.268;2023-12-07T02:03:00;100852.06;;;11.49;100.00
33404;BME280;19751;40.274;18.268;2023-12-07T02:05:28;100851.47;;;11.54;100.00
33404;BME280;19751;40.274;18.268;2023-12-07T02:07:54;100858.97;;;11.58;100.00
33404;BME280;19751;40.274;18.268;2023-12-07T02:10:19;100862.25;;;11.54;100.00
33404;BME280;19751;40.274;18.268;2023-12-07T02:12:46;100859.28;;;11.49;100.00
33404;BME280;19751;40.274;18.268;2023-12-07T02:15:13;100860.31;;;11.48;100.00
33404;BME280;19751;40.274;18.268;2023-12-07T02:17:51;100856.78;;;11.47;100.00
33404;BME280;19751;40.274;18.268;2023-12-07T02:23:04;100858.72;;;11.53;100.00
33404;BME280;19751;40.274;18.268;2023-12-07T02:25:40;100857.03;;;11.52;100.00
33404;BME280;19751;40.274;18.268;2023-12-07T02:28:09;100865.13;;;11.52;100.00
33404;BME280;19751;40.274;18.268;2023-12-07T02:30:35;100857.03;;;11.52;100.00
33404;BME280;19751;40.274;18.268;2023-12-07T02:33:01;100855.16;;;11.53;100.00
33404;BME280;19751;40.274;18.268;2023-12-07T02:35:27;100855.16;;;11.53;100.00
33404;BME280;19751;40.274;18.268;2023-12-07T02:37:54;100849.59;;;11.54;100.00
33404;BME280;19751;40.274;18.268;2023-12-07T02:40:25;100851.72;;;11.59;100.00
33404;BME280;19751;40.274;18.268;2023-12-07T02:42:53;100844.06;;;11.62;100.00
33404;BME280;19751;40.274;18.268;2023-12-07T02:45:19;100839.31;;;11.64;100.00
33404;BME280;19751;40.274;18.268;2023-12-07T02:47:44;100846.94;;;11.61;100.00
33404;BME280;19751;40.274;18.268;2023-12-07T02:50:11;100843.84;;;11.57;100.00
33404;BME280;19751;40.274;18.268;2023-12-07T02:52:37;100850.44;;;11.55;100.00
33404;BME280;19751;40.274;18.268;2023-12-07T02:55:03;100853.50;;;11.52;100.00
33404;BME280;19751;40.274;18.268;2023-12-07T02:57:29;100851.19;;;11.49;100.00
33404;BME280;19751;40.274;18.268;2023-12-07T02:59:56;100855.31;;;11.44;100.00
33404;BME280;19751;40.274;18.268;2023-12-07T03:02:21;100855.13;;;11.46;100.00
33404;BME280;19751;40.274;18.268;2023-12-07T03:04:47;100860.69;;;11.44;100.00
33404;BME280;19751;40.274;18.268;2023-12-07T03:07:13;100857.38;;;11.42;100.00
33404;BME280;19751;40.274;18.268;2023-12-07T03:09:38;100851.97;;;11.42;100.00
33404;BME280;19751;40.274;18.268;2023-12-07T03:12:04;100851.97;;;11.42;100.00
33404;BME280;19751;40.274;18.268;2023-12-07T03:14:30;100851.16;;;11.42;100.00
33404;BME280;19751;40.274;18.268;2023-12-07T03:16:55;100852.75;;;11.36;100.00
33404;BME280;19751;40.274;18.268;2023-12-07T03:19:21;100864.94;;;11.32;100.00
33404;BME280;19751;40.274;18.268;2023-12-07T03:21:46;100861.72;;;11.22;100.00
33404;BME280;19751;40.274;18.268;2023-12-07T03:24:12;100861.72;;;11.22;100.00
33404;BME280;19751;40.274;18.268;2023-12-07T03:26:37;100868.78;;;11.23;100.00
33404;BME280;19751;40.274;18.268;2023-12-07T03:29:03;100872.13;;;11.25;100.00
33404;BME280;19751;40.274;18.268;2023-12-07T03:31:29;100872.59;;;11.29;100.00
33404;BME280;19751;40.274;18.268;2023-12-07T03:33:55;100875.09;;;11.30;100.00
33404;BME280;19751;40.274;18.268;2023-12-07T03:36:21;100878.25;;;11.34;100.00
33404;BME280;19751;40.274;18.268;2023-12-07T03:38:47;100877.41;;;11.33;100.00
33404;BME280;19751;40.274;18.268;2023-12-07T03:41:13;100884.47;;;11.34;100.00
33404;BME280;19751;40.274;18.268;2023-12-07T03:43:39;100880.47;;;11.30;100.00
33404;BME280;19751;40.274;18.268;2023-12-07T03:46:05;100881.69;;;11.28;100.00
33404;BME280;19751;40.274;18.268;2023-12-07T03:48:31;100875.78;;;11.17;100.00
33404;BME280;19751;40.274;18.268;2023-12-07T03:50:57;100881.16;;;11.17;100.00
33404;BME280;19751;40.274;18.268;2023-12-07T03:53:22;100881.16;;;11.17;100.00
33404;BME280;19751;40.274;18.268;2023-12-07T03:55:48;100883.78;;;11.11;100.00
33404;BME280;19751;40.274;18.268;2023-12-07T03:58:13;100880.25;;;11.10;100.00
33404;BME280;19751;40.274;18.268;2023-12-07T04:00:39;100886.09;;;11.14;100.00
33404;BME280;19751;40.274;18.268;2023-12-07T04:03:05;100879.66;;;11.15;100.00
33404;BME280;19751;40.274;18.268;2023-12-07T04:05:31;100889.56;;;11.08;100.00
33404;BME280;19751;40.274;18.268;2023-12-07T04:07:57;100881.69;;;10.91;100.00
33404;BME280;19751;40.274;18.268;2023-12-07T04:10:23;100891.06;;;10.81;100.00
33404;BME280;19751;40.274;18.268;2023-12-07T04:12:48;100887.53;;;10.80;100.00
33404;BME280;19751;40.274;18.268;2023-12-07T04:15:14;100891.91;;;10.81;100.00
33404;BME280;19751;40.274;18.268;2023-12-07T04:17:39;100898.53;;;10.79;100.00
33404;BME280;19751;40.274;18.268;2023-12-07T04:20:06;100892.94;;;10.80;100.00
33404;BME280;19751;40.274;18.268;2023-12-07T04:22:32;100889.78;;;10.77;100.00
33404;BME280;19751;40.274;18.268;2023-12-07T04:24:58;100900.00;;;10.66;100.00
33404;BME280;19751;40.274;18.268;2023-12-07T04:27:23;100897.47;;;10.65;100.00
33404;BME280;19751;40.274;18.268;2023-12-07T04:29:49;100904.16;;;10.69;100.00
33404;BME280;19751;40.274;18.268;2023-12-07T04:32:14;100905.00;;;10.69;100.00
33404;BME280;19751;40.274;18.268;2023-12-07T04:34:40;100910.03;;;10.73;100.00
33404;BME280;19751;40.274;18.268;2023-12-07T04:37:05;100913.75;;;10.72;100.00
33404;BME280;19751;40.274;18.268;2023-12-07T04:39:31;100912.91;;;10.71;100.00
33404;BME280;19751;40.274;18.268;2023-12-07T04:41:56;100908.56;;;10.70;100.00
33404;BME280;19751;40.274;18.268;2023-12-07T04:44:22;100915.78;;;10.69;100.00
33404;BME280;19751;40.274;18.268;2023-12-07T04:46:47;100909.56;;;10.69;100.00
33404;BME280;19751;40.274;18.268;2023-12-07T04:49:13;100923.31;;;10.59;100.00
33404;BME280;19751;40.274;18.268;2023-12-07T04:51:38;100917.06;;;10.44;100.00
33404;BME280;19751;40.274;18.268;2023-12-07T04:54:04;100918.53;;;10.32;100.00
33404;BME280;19751;40.274;18.268;2023-12-07T04:56:29;100918.06;;;10.28;100.00
33404;BME280;19751;40.274;18.268;2023-12-07T04:58:55;100921.44;;;10.30;100.00
33404;BME280;19751;40.274;18.268;2023-12-07T05:01:20;100925.50;;;10.26;100.00
33404;BME280;19751;40.274;18.268;2023-12-07T05:03:46;100933.78;;;10.25;100.00
33404;BME280;19751;40.274;18.268;2023-12-07T05:06:11;100932.25;;;10.22;100.00
33404;BME280;19751;40.274;18.268;2023-12-07T05:08:38;100934.59;;;10.25;100.00
33404;BME280;19751;40.274;18.268;2023-12-07T05:11:04;100941.94;;;10.31;100.00
33404;BME280;19751;40.274;18.268;2023-12-07T05:13:30;100944.16;;;10.28;100.00
33404;BME280;19751;40.274;18.268;2023-12-07T05:15:55;100947.56;;;10.21;100.00
33404;BME280;19751;40.274;18.268;2023-12-07T05:18:21;100946.31;;;10.09;100.00
33404;BME280;19751;40.274;18.268;2023-12-07T05:20:46;100949.34;;;9.91;100.00
33404;BME280;19751;40.274;18.268;2023-12-07T05:23:12;100942.84;;;9.78;100.00
33404;BME280;19751;40.274;18.268;2023-12-07T05:25:37;100948.44;;;9.76;100.00
33404;BME280;19751;40.274;18.268;2023-12-07T05:28:03;100943.53;;;9.80;100.00
33404;BME280;19751;40.274;18.268;2023-12-07T05:30:28;100940.94;;;9.86;100.00
33404;BME280;19751;40.274;18.268;2023-12-07T05:32:54;100945.44;;;9.94;100.00
33404;BME280;19751;40.274;18.268;2023-12-07T05:35:19;100946.38;;;10.01;100.00
33404;BME280;19751;40.274;18.268;2023-12-07T05:37:45;100949.06;;;10.01;100.00
33404;BME280;19751;40.274;18.268;2023-12-07T05:40:11;100956.72;;;9.89;100.00
33404;BME280;19751;40.274;18.268;2023-12-07T05:42:37;100957.81;;;9.80;100.00
33404;BME280;19751;40.274;18.268;2023-12-07T05:45:03;100953.06;;;9.82;100.00
33404;BME280;19751;40.274;18.268;2023-12-07T05:47:30;100951.06;;;9.84;100.00
33404;BME280;19751;40.274;18.268;2023-12-07T05:49:55;100954.88;;;9.90;100.00
33404;BME280;19751;40.274;18.268;2023-12-07T05:52:23;100953.75;;;9.84;100.00
33404;BME280;19751;40.274;18.268;2023-12-07T05:54:48;100958.00;;;9.79;100.00
33404;BME280;19751;40.274;18.268;2023-12-07T05:57:14;100963.19;;;9.80;100.00
33404;BME280;19751;40.274;18.268;2023-12-07T05:59:40;100968.44;;;9.74;100.00
33404;BME280;19751;40.274;18.268;2023-12-07T06:02:07;100969.81;;;9.69;100.00
33404;BME280;19751;40.274;18.268;2023-12-07T06:04:32;100971.31;;;9.72;100.00
33404;BME280;19751;40.274;18.268;2023-12-07T06:06:58;100983.94;;;9.71;100.00
33404;BME280;19751;40.274;18.268;2023-12-07T06:09:23;100981.41;;;9.70;100.00
33404;BME280;19751;40.274;18.268;2023-12-07T06:11:49;100989.75;;;9.52;100.00
33404;BME280;19751;40.274;18.268;2023-12-07T06:14:14;100988.50;;;9.32;100.00
33404;BME280;19751;40.274;18.268;2023-12-07T06:16:40;100995.97;;;9.21;100.00
33404;BME280;19751;40.274;18.268;2023-12-07T06:19:05;101005.38;;;9.17;100.00
33404;BME280;19751;40.274;18.268;2023-12-07T06:21:31;101011.94;;;9.15;100.00
33404;BME280;19751;40.274;18.268;2023-12-07T06:23:57;101004.88;;;9.14;100.00
33404;BME280;19751;40.274;18.268;2023-12-07T06:26:24;101010.38;;;9.20;100.00
33404;BME280;19751;40.274;18.268;2023-12-07T06:28:50;101011.22;;;9.29;100.00
33404;BME280;19751;40.274;18.268;2023-12-07T06:31:16;101015.38;;;9.32;100.00
33404;BME280;19751;40.274;18.268;2023-12-07T06:33:45;101011.53;;;9.34;100.00
33404;BME280;19751;40.274;18.268;2023-12-07T06:36:11;101021.78;;;9.31;100.00
33404;BME280;19751;40.274;18.268;2023-12-07T06:38:37;101014.75;;;9.30;100.00
33404;BME280;19751;40.274;18.268;2023-12-07T06:41:03;101025.31;;;9.31;100.00
33404;BME280;19751;40.274;18.268;2023-12-07T06:43:29;101023.44;;;9.32;100.00
33404;BME280;19751;40.274;18.268;2023-12-07T06:45:54;101024.63;;;9.37;100.00
33404;BME280;19751;40.274;18.268;2023-12-07T06:48:20;101026.31;;;9.30;100.00
33404;BME280;19751;40.274;18.268;2023-12-07T06:50:45;101031.25;;;9.18;100.00
33404;BME280;19751;40.274;18.268;2023-12-07T06:53:11;101033.31;;;9.08;100.00
33404;BME280;19751;40.274;18.268;2023-12-07T06:55:36;101043.56;;;9.05;100.00
33404;BME280;19751;40.274;18.268;2023-12-07T06:58:02;101040.38;;;9.01;100.00
33404;BME280;19751;40.274;18.268;2023-12-07T07:00:27;101042.88;;;8.94;100.00
33404;BME280;19751;40.274;18.268;2023-12-07T07:02:53;101041.75;;;8.89;100.00
33404;BME280;19751;40.274;18.268;2023-12-07T07:05:18;101037.84;;;8.91;100.00
33404;BME280;19751;40.274;18.268;2023-12-07T07:07:45;101040.53;;;8.91;100.00
33404;BME280;19751;40.274;18.268;2023-12-07T07:10:10;101042.88;;;8.94;100.00
33404;BME280;19751;40.274;18.268;2023-12-07T07:12:37;101040.88;;;8.96;100.00
33404;BME280;19751;40.274;18.268;2023-12-07T07:15:03;101049.25;;;9.02;100.00
33404;BME280;19751;40.274;18.268;2023-12-07T07:17:29;101047.91;;;9.06;100.00
33404;BME280;19751;40.274;18.268;2023-12-07T07:19:54;101055.13;;;9.05;100.00
33404;BME280;19751;40.274;18.268;2023-12-07T07:22:21;101052.94;;;9.09;100.00
33404;BME280;19751;40.274;18.268;2023-12-07T07:24:47;101049.72;;;9.21;100.00
33404;BME280;19751;40.274;18.268;2023-12-07T07:27:12;101049.31;;;9.33;100.00
33404;BME280;19751;40.274;18.268;2023-12-07T07:29:38;101048.97;;;9.36;100.00
33404;BME280;19751;40.274;18.268;2023-12-07T07:32:04;101046.94;;;9.46;100.00
33404;BME280;19751;40.274;18.268;2023-12-07T07:34:29;101045.34;;;9.60;100.00
33404;BME280;19751;40.274;18.268;2023-12-07T07:36:55;101039.59;;;9.71;100.00
33404;BME280;19751;40.274;18.268;2023-12-07T07:39:20;101043.59;;;9.75;100.00
33404;BME280;19751;40.274;18.268;2023-12-07T07:41:46;101041.03;;;9.82;100.00
33404;BME280;19751;40.274;18.268;2023-12-07T07:44:11;101047.91;;;9.84;100.00
33404;BME280;19751;40.274;18.268;2023-12-07T07:46:37;101050.06;;;9.89;100.00
33404;BME280;19751;40.274;18.268;2023-12-07T07:49:02;101054.38;;;9.98;100.00
33404;BME280;19751;40.274;18.268;2023-12-07T07:51:29;101056.00;;;10.07;100.00
33404;BME280;19751;40.274;18.268;2023-12-07T07:53:55;101056.97;;;10.14;100.00
33404;BME280;19751;40.274;18.268;2023-12-07T07:56:22;101064.16;;;10.22;100.00
33404;BME280;19751;40.274;18.268;2023-12-07T07:58:47;101060.94;;;10.27;100.00
33404;BME280;19751;40.274;18.268;2023-12-07T08:01:13;101068.13;;;10.34;100.00
33404;BME280;19751;40.274;18.268;2023-12-07T08:03:38;101070.16;;;10.32;100.00
33404;BME280;19751;40.274;18.268;2023-12-07T08:06:04;101078.91;;;10.34;100.00
33404;BME280;19751;40.274;18.268;2023-12-07T08:08:30;101071.78;;;10.41;100.00
33404;BME280;19751;40.274;18.268;2023-12-07T08:10:55;101073.25;;;10.44;100.00
33404;BME280;19751;40.274;18.268;2023-12-07T08:13:21;101065.66;;;10.48;100.00
33404;BME280;19751;40.274;18.268;2023-12-07T08:15:46;101072.66;;;10.57;100.00
33404;BME280;19751;40.274;18.268;2023-12-07T08:18:11;101075.47;;;10.63;100.00
33404;BME280;19751;40.274;18.268;2023-12-07T08:20:37;101071.19;;;10.69;100.00
33404;BME280;19751;40.274;18.268;2023-12-07T08:23:03;101077.25;;;10.71;100.00
33404;BME280;19751;40.274;18.268;2023-12-07T08:25:28;101070.50;;;10.75;100.00
33404;BME280;19751;40.274;18.268;2023-12-07T08:27:54;101076.72;;;10.76;100.00
33404;BME280;19751;40.274;18.268;2023-12-07T08:30:19;101077.84;;;10.81;100.00
33404;BME280;19751;40.274;18.268;2023-12-07T08:32:45;101074.03;;;10.90;100.00
33404;BME280;19751;40.274;18.268;2023-12-07T08:35:11;101073.13;;;10.98;100.00
33404;BME280;19751;40.274;18.268;2023-12-07T08:37:37;101077.94;;;11.03;100.00
33404;BME280;19751;40.274;18.268;2023-12-07T08:40:04;101079.66;;;11.04;100.00
33404;BME280;19751;40.274;18.268;2023-12-07T08:42:30;101074.91;;;11.06;100.00
33404;BME280;19751;40.274;18.268;2023-12-07T08:44:57;101077.22;;;11.09;100.00
33404;BME280;19751;40.274;18.268;2023-12-07T08:47:22;101073.50;;;11.10;100.00
33404;BME280;19751;40.274;18.268;2023-12-07T08:49:48;101080.88;;;11.16;100.00
33404;BME280;19751;40.274;18.268;2023-12-07T08:52:14;101083.00;;;11.20;100.00
33404;BME280;19751;40.274;18.268;2023-12-07T08:54:40;101078.44;;;11.21;100.00
33404;BME280;19751;40.274;18.268;2023-12-07T08:57:05;101076.22;;;11.25;100.00
33404;BME280;19751;40.274;18.268;2023-12-07T08:59:31;101071.94;;;11.30;100.00
33404;BME280;19751;40.274;18.268;2023-12-07T09:01:56;101062.66;;;11.33;100.00
33404;BME280;19751;40.274;18.268;2023-12-07T09:04:22;101072.22;;;11.35;100.00
33404;BME280;19751;40.274;18.268;2023-12-07T09:06:47;101059.75;;;11.34;100.00
33404;BME280;19751;40.274;18.268;2023-12-07T09:09:13;101057.31;;;11.39;100.00
33404;BME280;19751;40.274;18.268;2023-12-07T09:11:38;101056.41;;;11.47;100.00
33404;BME280;19751;40.274;18.268;2023-12-07T09:14:04;101056.50;;;11.54;100.00
33404;BME280;19751;40.274;18.268;2023-12-07T09:16:29;101062.53;;;11.56;100.00
33404;BME280;19751;40.274;18.268;2023-12-07T09:18:55;101058.44;;;11.60;100.00
33404;BME280;19751;40.274;18.268;2023-12-07T09:21:21;101068.03;;;11.62;100.00
33404;BME280;19751;40.274;18.268;2023-12-07T09:23:46;101061.59;;;11.63;100.00
33404;BME280;19751;40.274;18.268;2023-12-07T09:26:12;101062.06;;;11.67;100.00
33404;BME280;19751;40.274;18.268;2023-12-07T09:28:37;101064.38;;;11.70;100.00
33404;BME280;19751;40.274;18.268;2023-12-07T09:31:05;101055.06;;;11.73;100.00
33404;BME280;19751;40.274;18.268;2023-12-07T09:33:31;101057.28;;;11.69;100.00
33404;BME280;19751;40.274;18.268;2023-12-07T09:35:56;101051.88;;;11.69;100.00
33404;BME280;19751;40.274;18.268;2023-12-07T09:38:22;101042.22;;;11.75;100.00
33404;BME280;19751;40.274;18.268;2023-12-07T09:40:52;101042.03;;;11.76;100.00
33404;BME280;19751;40.274;18.268;2023-12-07T09:43:18;101040.34;;;11.75;100.00
33404;BME280;19751;40.274;18.268;2023-12-07T09:45:44;101039.53;;;11.75;100.00
33404;BME280;19751;40.274;18.268;2023-12-07T09:48:10;101041.81;;;11.78;100.00
33404;BME280;19751;40.274;18.268;2023-12-07T09:50:36;101032.25;;;11.75;100.00
33404;BME280;19751;40.274;18.268;2023-12-07T09:53:02;101043.69;;;11.77;100.00
33404;BME280;19751;40.274;18.268;2023-12-07T09:55:28;101029.81;;;11.80;100.00
33404;BME280;19751;40.274;18.268;2023-12-07T09:57:54;101026.78;;;11.83;100.00
33404;BME280;19751;40.274;18.268;2023-12-07T10:00:22;101026.41;;;11.86;100.00
33404;BME280;19751;40.274;18.268;2023-12-07T10:02:48;101019.41;;;11.92;100.00
33404;BME280;19751;40.274;18.268;2023-12-07T10:05:15;101017.16;;;11.96;100.00
33404;BME280;19751;40.274;18.268;2023-12-07T10:07:46;101027.38;;;12.00;100.00
33404;BME280;19751;40.274;18.268;2023-12-07T10:10:13;101021.59;;;12.03;100.00
33404;BME280;19751;40.274;18.268;2023-12-07T10:12:59;101020.34;;;12.06;100.00
33404;BME280;19751;40.274;18.268;2023-12-07T10:15:25;101013.97;;;12.07;100.00
33404;BME280;19751;40.274;18.268;2023-12-07T10:17:58;101008.34;;;12.08;100.00
33404;BME280;19751;40.274;18.268;2023-12-07T10:20:26;101005.84;;;12.07;100.00
33404;BME280;19751;40.274;18.268;2023-12-07T10:23:06;101010.22;;;12.08;100.00
33404;BME280;19751;40.274;18.268;2023-12-07T10:25:41;101007.78;;;12.13;100.00
33404;BME280;19751;40.274;18.268;2023-12-07T10:28:10;101011.38;;;12.20;100.00
33404;BME280;19751;40.274;18.268;2023-12-07T10:30:40;101014.47;;;12.17;100.00
33404;BME280;19751;40.274;18.268;2023-12-07T10:33:07;101016.31;;;12.16;100.00
33404;BME280;19751;40.274;18.268;2023-12-07T10:35:47;101013.03;;;12.21;100.00
33404;BME280;19751;40.274;18.268;2023-12-07T10:38:16;101010.59;;;12.26;100.00
33404;BME280;19751;40.274;18.268;2023-12-07T10:40:45;101004.59;;;12.31;100.00
33404;BME280;19751;40.274;18.268;2023-12-07T10:43:12;100996.94;;;12.34;100.00
33404;BME280;19751;40.274;18.268;2023-12-07T10:45:40;100994.50;;;12.39;100.00
33404;BME280;19751;40.274;18.268;2023-12-07T10:48:09;100998.47;;;12.43;100.00
33404;BME280;19751;40.274;18.268;2023-12-07T10:50:36;100992.91;;;12.45;100.00
33404;BME280;19751;40.274;18.268;2023-12-07T10:53:15;100992.31;;;12.50;100.00
33404;BME280;19751;40.274;18.268;2023-12-07T10:55:52;100987.94;;;12.49;100.00
33404;BME280;19751;40.274;18.268;2023-12-07T10:58:21;100984.19;;;12.50;100.00
33404;BME280;19751;40.274;18.268;2023-12-07T11:00:48;100983.38;;;12.49;100.00
33404;BME280;19751;40.274;18.268;2023-12-07T11:03:18;100986.06;;;12.49;100.00
33404;BME280;19751;40.274;18.268;2023-12-07T11:05:45;100980.47;;;12.51;100.00
33404;BME280;19751;40.274;18.268;2023-12-07T11:11:14;100982.47;;;12.42;100.00
33404;BME280;19751;40.274;18.268;2023-12-07T11:13:52;100979.63;;;12.50;100.00
33404;BME280;19751;40.274;18.268;2023-12-07T11:16:31;100973.03;;;12.59;100.00
33404;BME280;19751;40.274;18.268;2023-12-07T11:18:58;100972.25;;;12.65;100.00
33404;BME280;19751;40.274;18.268;2023-12-07T11:21:26;100972.72;;;12.69;100.00
33404;BME280;19751;40.274;18.268;2023-12-07T11:23:53;100966.44;;;12.68;100.00
33404;BME280;19751;40.274;18.268;2023-12-07T11:26:26;100966.44;;;12.68;100.00
33404;BME280;19751;40.274;18.268;2023-12-07T11:28:53;100966.03;;;12.65;100.00
33404;BME280;19751;40.274;18.268;2023-12-07T11:31:21;100972.19;;;12.59;100.00
33404;BME280;19751;40.274;18.268;2023-12-07T11:33:48;100971.38;;;12.58;100.00
33404;BME280;19751;40.274;18.268;2023-12-07T11:36:14;100979.28;;;12.60;100.00
33404;BME280;19751;40.274;18.268;2023-12-07T11:41:42;100967.53;;;12.74;100.00
33404;BME280;19751;40.274;18.268;2023-12-07T11:44:10;100965.69;;;12.81;100.00
33404;BME280;19751;40.274;18.268;2023-12-07T11:46:37;100964.09;;;12.87;100.00
33404;BME280;19751;40.274;18.268;2023-12-07T11:49:04;100971.59;;;12.91;100.00
33404;BME280;19751;40.274;18.268;2023-12-07T11:51:34;100970.16;;;12.96;100.00
33404;BME280;19751;40.274;18.268;2023-12-07T11:53:59;100962.88;;;12.96;100.00
33404;BME280;19751;40.274;18.268;2023-12-07T11:56:30;100964.75;;;12.96;100.00
33404;BME280;19751;40.274;18.268;2023-12-07T11:58:56;100964.97;;;12.94;100.00
33404;BME280;19751;40.274;18.268;2023-12-07T12:01:26;100957.41;;;12.89;100.00
33404;BME280;19751;40.274;18.268;2023-12-07T12:03:56;100961.38;;;12.87;100.00
33404;BME280;19751;40.274;18.268;2023-12-07T12:06:24;100958.22;;;12.83;100.00
33404;BME280;19751;40.274;18.268;2023-12-07T12:08:51;100957.84;;;12.86;100.00
33404;BME280;19751;40.274;18.268;2023-12-07T12:11:19;100951.00;;;12.90;100.00
33404;BME280;19751;40.274;18.268;2023-12-07T12:13:46;100949.13;;;12.91;100.00
33404;BME280;19751;40.274;18.268;2023-12-07T12:16:14;100950.56;;;12.93;100.00
33404;BME280;19751;40.274;18.268;2023-12-07T12:18:39;100945.38;;;12.92;100.00
33404;BME280;19751;40.274;18.268;2023-12-07T12:21:07;100951.84;;;12.91;100.00
33404;BME280;19751;40.274;18.268;2023-12-07T12:23:37;100947.22;;;12.85;100.00
33404;BME280;19751;40.274;18.268;2023-12-07T12:26:06;100940.31;;;12.76;100.00
33404;BME280;19751;40.274;18.268;2023-12-07T12:28:32;100944.25;;;12.73;100.00
33404;BME280;19751;40.274;18.268;2023-12-07T12:31:03;100948.19;;;12.71;100.00
33404;BME280;19751;40.274;18.268;2023-12-07T12:33:28;100938.19;;;12.71;100.00
33404;BME280;19751;40.274;18.268;2023-12-07T12:36:14;100939.47;;;12.75;100.00
33404;BME280;19751;40.274;18.268;2023-12-07T12:38:47;100945.50;;;12.77;100.00